Time;durP1;ratioP1;P1;durP2;ratioP2;P2;SDS_P1;SDS_P2;PMS_P1;PMS_P2;Temp;Humidity;BMP_temperature;BMP_pressure;BME280_temperature;BME280_humidity;BME280_pressure;Samples;Min_cycle;Max_cycle;Signal;HPM_P1;HPM_P2
2022/06/29 00:00:13;;;;;;;;;;;;;;;22.66;81.84;97291.20;575470;246;64960;-72
2022/06/29 00:02:42;;;;;;;;;;;;;;;22.65;81.91;97292.28;575477;246;69703;-72
2022/06/29 00:05:10;;;;;;;;;;;;;;;22.66;81.91;97291.20;575558;246;68542;-72
2022/06/29 00:07:38;;;;;;;;;;;;;;;22.67;81.88;97297.34;575530;246;65117;-72
2022/06/29 00:10:06;;;;;;;;;;;;;;;22.66;81.88;97293.88;575589;246;68675;-72
2022/06/29 00:12:33;;;;;;;;;;;;;;;22.66;81.83;97293.88;575542;246;68738;-72
2022/06/29 00:15:04;;;;;;;;;;;;;;;22.67;81.82;97290.14;575526;246;64919;-72
2022/06/29 00:17:32;;;;;;;;;;;;;;;22.67;81.78;97292.81;575544;246;66503;-73
2022/06/29 00:20:00;;;;;;;;;;;;;;;22.66;81.83;97291.20;575570;246;68354;-73
2022/06/29 00:22:28;;;;;;;;;;;;;;;22.65;81.84;97284.25;575532;246;65068;-72
2022/06/29 00:24:56;;;;;;;;;;;;;;;22.66;81.99;97291.20;575581;246;68834;-73
2022/06/29 00:27:24;;;;;;;;;;;;;;;22.66;81.83;97288.52;575485;246;68832;-73
2022/06/29 00:29:51;;;;;;;;;;;;;;;22.66;81.91;97280.48;575520;246;62833;-73
2022/06/29 00:32:19;;;;;;;;;;;;;;;22.66;81.96;97269.77;575551;246;66531;-72
2022/06/29 00:34:46;;;;;;;;;;;;;;;22.67;81.92;97275.92;575547;246;68396;-73
2022/06/29 00:37:14;;;;;;;;;;;;;;;22.66;81.93;97275.13;575550;246;64880;-73
2022/06/29 00:39:41;;;;;;;;;;;;;;;22.66;81.82;97269.77;575534;246;66482;-72
2022/06/29 00:42:09;;;;;;;;;;;;;;;22.66;81.77;97268.97;575527;246;68355;-74
2022/06/29 00:44:36;;;;;;;;;;;;;;;22.66;81.79;97266.29;575549;246;62813;-74
2022/06/29 00:47:05;;;;;;;;;;;;;;;22.66;81.84;97271.65;575529;246;66245;-74
2022/06/29 00:49:33;;;;;;;;;;;;;;;22.66;81.82;97267.09;575583;246;68508;-74
2022/06/29 00:52:08;;;;;;;;;;;;;;;22.66;81.95;97271.65;575500;246;62802;-74
2022/06/29 00:54:37;;;;;;;;;;;;;;;22.66;81.94;97268.97;575507;246;69114;-75
2022/06/29 00:57:09;;;;;;;;;;;;;;;22.66;81.99;97269.77;575529;246;68462;-75
2022/06/29 00:59:38;;;;;;;;;;;;;;;22.66;82.14;97269.77;575528;246;65188;-75
2022/06/29 01:02:06;;;;;;;;;;;;;;;22.66;82.18;97260.94;575474;246;69714;-75
2022/06/29 01:04:33;;;;;;;;;;;;;;;22.65;82.31;97260.14;575568;246;68586;-75
2022/06/29 01:07:01;;;;;;;;;;;;;;;22.65;82.22;97254.78;575527;246;64945;-75
2022/06/29 01:09:28;;;;;;;;;;;;;;;22.65;82.27;97252.09;575568;246;68404;-75
2022/06/29 01:11:56;;;;;;;;;;;;;;;22.66;82.20;97252.89;575547;246;68354;-75
2022/06/29 01:14:24;;;;;;;;;;;;;;;22.65;82.17;97254.78;575558;246;64814;-75
2022/06/29 01:16:51;;;;;;;;;;;;;;;22.65;82.19;97254.78;575591;246;68426;-75
2022/06/29 01:19:19;;;;;;;;;;;;;;;22.66;82.24;97255.58;575534;246;68670;-75
2022/06/29 01:21:48;;;;;;;;;;;;;;;22.65;82.21;97249.42;575541;246;64972;-75
2022/06/29 01:24:15;;;;;;;;;;;;;;;22.64;82.12;97247.80;575564;246;68386;-75
2022/06/29 01:26:43;;;;;;;;;;;;;;;22.64;82.09;97245.12;575532;246;68453;-75
2022/06/29 01:29:10;;;;;;;;;;;;;;;22.65;82.04;97245.95;575601;246;64781;-75
2022/06/29 01:31:38;;;;;;;;;;;;;;;22.65;81.96;97246.74;575548;246;68656;-75
2022/06/29 01:34:05;;;;;;;;;;;;;;;22.66;82.12;97234.14;575507;246;68310;-75
2022/06/29 01:36:33;;;;;;;;;;;;;;;22.66;82.19;97231.47;575543;246;64925;-75
2022/06/29 01:39:01;;;;;;;;;;;;;;;22.66;82.15;97228.78;575538;246;68952;-75
2022/06/29 01:41:28;;;;;;;;;;;;;;;22.66;82.21;97223.43;575511;246;68886;-75
2022/06/29 01:43:56;;;;;;;;;;;;;;;22.66;82.33;97226.91;575574;246;62759;-75
2022/06/29 01:46:23;;;;;;;;;;;;;;;22.65;82.39;97222.63;575508;246;68701;-75
2022/06/29 01:48:51;;;;;;;;;;;;;;;22.65;82.37;97222.63;575537;246;68535;-75
2022/06/29 01:51:18;;;;;;;;;;;;;;;22.65;82.27;97219.95;575506;246;64984;-75
2022/06/29 01:53:46;;;;;;;;;;;;;;;22.66;82.40;97216.19;573898;246;68685;-75
2022/06/29 01:56:13;;;;;;;;;;;;;;;22.65;82.43;97213.80;569126;249;68611;-75
2022/06/29 01:58:41;;;;;;;;;;;;;;;22.66;82.37;97215.39;569143;249;64942;-75
2022/06/29 02:01:08;;;;;;;;;;;;;;;22.66;82.39;97215.39;569045;249;68481;-75
2022/06/29 02:03:36;;;;;;;;;;;;;;;22.66;82.49;97210.83;569100;249;68790;-75
2022/06/29 02:06:03;;;;;;;;;;;;;;;22.65;82.60;97213.80;569061;247;64998;-75
2022/06/29 02:08:31;;;;;;;;;;;;;;;22.65;82.43;97214.59;569156;249;68881;-75
2022/06/29 02:10:59;;;;;;;;;;;;;;;22.65;82.52;97209.23;569070;249;68536;-75
2022/06/29 02:13:27;;;;;;;;;;;;;;;22.64;82.58;97210.30;569069;249;64901;-75
2022/06/29 02:15:54;;;;;;;;;;;;;;;22.64;82.49;97206.83;569078;249;66654;-75
2022/06/29 02:18:22;;;;;;;;;;;;;;;22.65;82.58;97206.56;569105;249;66322;-75
2022/06/29 02:20:49;;;;;;;;;;;;;;;22.65;82.66;97208.45;569152;249;62860;-75
2022/06/29 02:23:17;;;;;;;;;;;;;;;22.65;82.45;97205.77;569107;249;66470;-75
2022/06/29 02:25:44;;;;;;;;;;;;;;;22.64;82.45;97209.50;569120;249;66493;-75
2022/06/29 02:28:12;;;;;;;;;;;;;;;22.64;82.43;97204.94;569095;249;62829;-75
2022/06/29 02:36:11;;;;;;;;;;;;;;;22.64;82.48;97191.55;569184;249;65227;-75
2022/06/29 02:38:38;;;;;;;;;;;;;;;22.65;82.52;97195.05;569068;249;68699;-75
2022/06/29 02:41:06;;;;;;;;;;;;;;;22.65;82.60;97187.81;569090;249;68516;-75
2022/06/29 02:43:33;;;;;;;;;;;;;;;22.64;82.61;97188.87;569122;249;65116;-75
2022/06/29 02:46:01;;;;;;;;;;;;;;;22.63;82.51;97187.28;569121;249;68691;-75
2022/06/29 02:48:28;;;;;;;;;;;;;;;22.64;82.54;97186.19;569121;249;68372;-75
2022/06/29 02:50:55;;;;;;;;;;;;;;;22.63;82.56;97189.95;569137;249;64969;-75
2022/06/29 02:53:23;;;;;;;;;;;;;;;22.64;82.70;97196.91;569674;246;66491;-75
2022/06/29 02:55:50;;;;;;;;;;;;;;;22.65;82.81;97197.73;575522;246;68813;-75
2022/06/29 02:58:18;;;;;;;;;;;;;;;22.64;82.67;97194.23;575541;246;62848;-75
2022/06/29 03:00:45;;;;;;;;;;;;;;;22.63;82.75;97187.28;575563;246;66482;-75
2022/06/29 03:03:13;;;;;;;;;;;;;;;22.64;82.70;97183.51;575592;246;66594;-75
2022/06/29 03:05:41;;;;;;;;;;;;;;;22.64;82.65;97186.19;575519;246;62771;-75
2022/06/29 03:08:08;;;;;;;;;;;;;;;22.64;82.66;97186.19;575549;246;68757;-73
2022/06/29 03:10:36;;;;;;;;;;;;;;;22.64;82.74;97180.04;575520;246;66503;-75
2022/06/29 03:13:03;;;;;;;;;;;;;;;22.63;82.71;97181.92;575591;246;62500;-75
2022/06/29 03:15:31;;;;;;;;;;;;;;;22.63;82.76;97173.89;575585;246;65856;-75
2022/06/29 03:17:58;;;;;;;;;;;;;;;22.64;82.67;97175.47;575531;246;66453;-75
2022/06/29 03:20:26;;;;;;;;;;;;;;;22.63;82.60;97176.56;575495;246;62497;-75
2022/06/29 03:22:53;;;;;;;;;;;;;;;22.64;82.78;97175.47;575563;246;66345;-74
2022/06/29 03:25:21;;;;;;;;;;;;;;;22.64;82.67;97170.12;575536;246;66279;-75
2022/06/29 03:27:49;;;;;;;;;;;;;;;22.64;82.71;97172.00;575580;246;62838;-73
2022/06/29 03:30:18;;;;;;;;;;;;;;;22.63;82.64;97171.20;575567;246;66471;-73
2022/06/29 03:32:45;;;;;;;;;;;;;;;22.63;82.67;97163.17;575491;246;68512;-75
2022/06/29 03:35:13;;;;;;;;;;;;;;;22.63;82.73;97165.85;575563;246;65001;-75
2022/06/29 03:37:40;;;;;;;;;;;;;;;22.64;82.71;97169.32;575562;246;68667;-75
2022/06/29 03:40:08;;;;;;;;;;;;;;;22.63;82.73;97163.17;575581;246;68531;-75
2022/06/29 03:42:38;;;;;;;;;;;;;;;22.64;82.65;97159.41;575395;246;46377;-73
2022/06/29 03:45:06;;;;;;;;;;;;;;;22.63;82.74;97160.49;575434;246;68699;-73
2022/06/29 03:47:34;;;;;;;;;;;;;;;22.64;82.78;97154.05;575552;246;68335;-73
2022/06/29 03:50:02;;;;;;;;;;;;;;;22.63;82.74;97152.45;575535;246;62782;-73
2022/06/29 03:52:29;;;;;;;;;;;;;;;22.63;82.74;97143.63;575594;246;66512;-73
2022/06/29 03:54:57;;;;;;;;;;;;;;;22.63;82.73;97147.09;575496;246;66557;-73
2022/06/29 03:57:24;;;;;;;;;;;;;;;22.63;82.67;97147.09;575551;246;62901;-73
2022/06/29 03:59:52;;;;;;;;;;;;;;;22.64;82.72;97153.25;575515;246;66563;-73
2022/06/29 04:02:19;;;;;;;;;;;;;;;22.63;82.77;97141.74;575564;246;66233;-73
2022/06/29 04:04:47;;;;;;;;;;;;;;;22.63;82.79;97135.59;575584;246;62854;-73
2022/06/29 04:07:14;;;;;;;;;;;;;;;22.64;82.75;97145.21;575540;246;66523;-73
2022/06/29 04:09:42;;;;;;;;;;;;;;;22.63;82.67;97149.78;575503;246;66871;-73
2022/06/29 04:12:09;;;;;;;;;;;;;;;22.63;82.71;97144.42;575556;246;64896;-73
2022/06/29 04:14:37;;;;;;;;;;;;;;;22.63;82.76;97139.06;575526;246;68627;-73
2022/06/29 04:17:04;;;;;;;;;;;;;;;22.64;82.74;97139.86;575607;246;68686;-73
2022/06/29 04:19:32;;;;;;;;;;;;;;;22.63;82.77;97141.74;575534;246;65002;-73
2022/06/29 04:21:59;;;;;;;;;;;;;;;22.63;82.86;97147.09;575553;246;68773;-73
2022/06/29 04:24:27;;;;;;;;;;;;;;;22.63;82.84;97136.38;575524;246;66346;-73
2022/06/29 04:26:54;;;;;;;;;;;;;;;22.63;82.85;97146.30;575539;246;64958;-73
2022/06/29 04:29:22;;;;;;;;;;;;;;;22.63;82.83;97146.30;575604;246;68739;-73
2022/06/29 04:31:49;;;;;;;;;;;;;;;22.63;82.90;97147.09;575526;246;68623;-73
2022/06/29 04:34:17;;;;;;;;;;;;;;;22.63;82.97;97138.27;575529;246;64877;-73
2022/06/29 04:36:44;;;;;;;;;;;;;;;22.62;82.93;97137.47;575522;246;68915;-71
2022/06/29 04:39:12;;;;;;;;;;;;;;;22.63;82.93;97135.59;575450;246;68495;-71
2022/06/29 04:41:39;;;;;;;;;;;;;;;22.63;82.93;97140.95;575565;246;64933;-71
2022/06/29 04:44:07;;;;;;;;;;;;;;;22.62;82.95;97145.52;575510;246;68788;-71
2022/06/29 04:46:34;;;;;;;;;;;;;;;22.63;83.00;97146.30;575509;246;68552;-71
2022/06/29 04:49:03;;;;;;;;;;;;;;;22.63;83.08;97133.70;575422;246;64874;-71
2022/06/29 04:51:32;;;;;;;;;;;;;;;22.62;83.03;97145.52;569210;246;69372;-72
2022/06/29 04:54:00;;;;;;;;;;;;;;;22.63;83.08;97138.27;573265;246;66605;-71
2022/06/29 04:56:28;;;;;;;;;;;;;;;22.62;83.03;97140.16;569134;249;64922;-71
2022/06/29 04:58:57;;;;;;;;;;;;;;;22.63;83.03;97147.09;569068;249;68541;-71
2022/06/29 05:01:26;;;;;;;;;;;;;;;22.62;83.09;97137.47;569116;249;66493;-71
2022/06/29 05:03:54;;;;;;;;;;;;;;;22.63;83.06;97130.23;569050;249;65129;-71
2022/06/29 05:06:22;;;;;;;;;;;;;;;22.63;83.03;97132.91;569081;249;68802;-71
2022/06/29 05:08:50;;;;;;;;;;;;;;;22.62;83.04;97126.76;569104;249;68439;-71
2022/06/29 05:11:18;;;;;;;;;;;;;;;22.61;83.02;97125.14;569117;249;65004;-71
2022/06/29 05:13:46;;;;;;;;;;;;;;;22.61;83.13;97125.94;569110;249;66723;-71
2022/06/29 05:16:14;;;;;;;;;;;;;;;22.61;83.06;97133.17;569151;249;67992;-71
2022/06/29 05:18:41;;;;;;;;;;;;;;;22.61;83.05;97125.14;569117;249;65103;-73
2022/06/29 05:21:09;;;;;;;;;;;;;;;22.61;83.08;97127.82;569158;249;68359;-71
2022/06/29 05:23:37;;;;;;;;;;;;;;;22.62;83.11;97129.44;569088;249;68703;-71
2022/06/29 05:26:04;;;;;;;;;;;;;;;22.63;83.09;97132.91;569121;249;64921;-71
2022/06/29 05:28:33;;;;;;;;;;;;;;;22.61;83.08;97122.46;569104;249;68361;-71
2022/06/29 05:31:00;;;;;;;;;;;;;;;22.61;83.08;97127.82;569025;249;66230;-71
2022/06/29 05:33:36;;;;;;;;;;;;;;;22.62;83.12;97134.80;569111;249;62845;-71
2022/06/29 05:36:02;;;;;;;;;;;;;;;22.61;83.12;97133.97;569034;248;66068;-72
2022/06/29 05:38:30;;;;;;;;;;;;;;;22.62;83.14;97140.16;568460;249;68375;-72
2022/06/29 05:41:05;;;;;;;;;;;;;;;22.61;83.16;97138.53;569073;249;65422;-75
2022/06/29 05:43:30;;;;;;;;;;;;;;;22.61;83.15;97144.69;568871;249;68440;-73
2022/06/29 05:45:58;;;;;;;;;;;;;;;22.61;83.11;97142.00;568825;249;66557;-73
2022/06/29 05:48:25;;;;;;;;;;;;;;;22.62;83.21;97145.52;568578;249;63103;-73
2022/06/29 05:50:53;;;;;;;;;;;;;;;22.64;82.67;97150.57;569050;249;66543;-72
2022/06/29 05:53:20;;;;;;;;;;;;;;;22.63;83.06;97148.98;569041;249;66470;-73
2022/06/29 05:55:48;;;;;;;;;;;;;;;22.61;83.22;97143.89;568969;249;62890;-73
2022/06/29 05:58:19;;;;;;;;;;;;;;;22.61;83.26;97149.25;568915;249;69652;-73
2022/06/29 06:00:47;;;;;;;;;;;;;;;22.61;83.33;97150.05;569501;246;68640;-73
2022/06/29 06:03:15;;;;;;;;;;;;;;;22.61;83.48;97154.60;571305;246;65163;-71
2022/06/29 06:05:42;;;;;;;;;;;;;;;22.61;83.36;97157.28;573364;246;68787;-73
2022/06/29 06:08:11;;;;;;;;;;;;;;;22.60;83.27;97153.02;569659;246;68556;-72
2022/06/29 06:10:39;;;;;;;;;;;;;;;22.60;83.18;97147.66;574250;246;64853;-72
2022/06/29 06:13:06;;;;;;;;;;;;;;;22.60;83.18;97145.77;572965;246;68820;-73
2022/06/29 06:15:38;;;;;;;;;;;;;;;22.58;82.79;97145.25;575100;246;68315;-73
2022/06/29 06:18:05;;;;;;;;;;;;;;;22.59;82.73;97149.55;574995;246;64977;-73
2022/06/29 06:20:33;;;;;;;;;;;;;;;22.60;82.73;97153.02;575018;246;68749;-73
2022/06/29 06:23:00;;;;;;;;;;;;;;;22.62;83.04;97150.86;575104;246;68563;-73
2022/06/29 06:25:28;;;;;;;;;;;;;;;22.61;83.63;97150.05;575032;246;62815;-73
2022/06/29 06:27:55;;;;;;;;;;;;;;;22.63;83.93;97152.45;574749;246;67429;-71
2022/06/29 06:30:23;;;;;;;;;;;;;;;22.63;84.02;97144.42;574991;246;66252;-69
2022/06/29 06:32:50;;;;;;;;;;;;;;;22.63;84.15;97131.02;575046;246;62907;-64
2022/06/29 06:35:19;;;;;;;;;;;;;;;22.66;81.39;97140.39;575116;246;66634;-74
2022/06/29 06:37:47;;;;;;;;;;;;;;;22.73;80.83;97135.52;575042;246;68845;-72
2022/06/29 06:43:00;;;;;;;;;;;;;;;22.70;82.13;97120.81;575119;246;69686;-72
2022/06/29 06:45:28;;;;;;;;;;;;;;;22.70;83.08;97130.70;575056;246;68621;-72
2022/06/29 06:47:55;;;;;;;;;;;;;;;22.69;83.30;97124.55;575101;246;64980;-72
2022/06/29 06:50:23;;;;;;;;;;;;;;;22.68;83.50;97125.64;575043;246;68680;-72
2022/06/29 06:52:50;;;;;;;;;;;;;;;22.69;83.77;97129.91;574994;246;66526;-72
2022/06/29 06:55:18;;;;;;;;;;;;;;;22.69;83.86;97127.23;577660;243;66605;-73
2022/06/29 06:57:45;;;;;;;;;;;;;;;22.68;83.96;97122.95;575084;246;66173;-70
2022/06/29 07:00:13;;;;;;;;;;;;;;;22.69;84.06;97123.75;575030;246;68516;-72
2022/06/29 07:02:41;;;;;;;;;;;;;;;22.68;84.08;97114.13;575018;246;62783;-73
2022/06/29 07:05:08;;;;;;;;;;;;;;;22.69;84.06;97115.72;575015;246;66543;-70
2022/06/29 07:07:36;;;;;;;;;;;;;;;22.68;84.09;97120.28;575046;246;68294;-73
2022/06/29 07:10:04;;;;;;;;;;;;;;;22.68;84.11;97130.99;573918;246;64947;-76
2022/06/29 07:12:31;;;;;;;;;;;;;;;22.68;84.16;97136.35;571693;246;68775;-72
2022/06/29 07:14:59;;;;;;;;;;;;;;;22.70;84.14;97136.88;568997;249;68670;-71
2022/06/29 07:17:26;;;;;;;;;;;;;;;22.69;84.15;97124.55;569057;249;64898;-74
2022/06/29 07:19:54;;;;;;;;;;;;;;;22.70;84.08;97128.02;569017;249;68689;-70
2022/06/29 07:22:21;;;;;;;;;;;;;;;22.71;84.52;97126.96;568976;249;68568;-72
2022/06/29 07:24:49;;;;;;;;;;;;;;;22.70;84.25;97115.45;573798;246;64903;-72
2022/06/29 07:27:16;;;;;;;;;;;;;;;22.71;84.21;97121.60;568967;247;66541;-77
2022/06/29 07:29:43;;;;;;;;;;;;;;;22.70;84.18;97118.13;568956;249;66469;-72
2022/06/29 07:32:11;;;;;;;;;;;;;;;22.71;84.19;97116.25;569614;246;64805;-71
2022/06/29 07:34:38;;;;;;;;;;;;;;;22.71;84.20;97121.60;573620;246;68711;-73
2022/06/29 07:37:06;;;;;;;;;;;;;;;22.72;84.15;97126.66;575058;246;68718;-73
2022/06/29 07:39:33;;;;;;;;;;;;;;;22.71;84.15;97127.75;575050;246;65116;-72
2022/06/29 07:42:01;;;;;;;;;;;;;;;22.72;84.22;97129.34;575021;246;68915;-70
2022/06/29 07:44:28;;;;;;;;;;;;;;;22.73;84.25;97122.13;575013;246;68369;-70
2022/06/29 07:46:56;;;;;;;;;;;;;;;22.72;84.24;97123.98;575046;246;65163;-70
2022/06/29 07:49:24;;;;;;;;;;;;;;;22.72;84.21;97121.30;575001;246;68756;-71
2022/06/29 07:51:54;;;;;;;;;;;;;;;22.72;84.21;97123.98;575049;246;69048;-71
2022/06/29 07:54:22;;;;;;;;;;;;;;;22.72;84.23;97126.66;578305;244;62824;-68
2022/06/29 07:56:49;;;;;;;;;;;;;;;22.72;84.15;97132.02;581622;244;68701;-69
2022/06/29 07:59:18;;;;;;;;;;;;;;;22.72;84.12;97123.98;581667;244;68535;-70
2022/06/29 08:01:45;;;;;;;;;;;;;;;22.72;84.06;97123.98;581670;244;62846;-71
2022/06/29 08:04:13;;;;;;;;;;;;;;;22.73;84.11;97141.67;581587;244;66453;-72
2022/06/29 08:06:40;;;;;;;;;;;;;;;22.75;81.44;97134.17;581618;244;68449;-70
2022/06/29 08:09:08;;;;;;;;;;;;;;;22.76;81.94;97137.64;581678;244;64925;-70
2022/06/29 08:11:35;;;;;;;;;;;;;;;22.75;83.29;97134.17;581635;244;66295;-71
2022/06/29 08:14:03;;;;;;;;;;;;;;;22.74;83.56;97137.91;581655;244;68788;-73
2022/06/29 08:16:31;;;;;;;;;;;;;;;22.74;83.65;97132.55;581589;244;65017;-74
2022/06/29 08:18:58;;;;;;;;;;;;;;;22.74;83.65;97145.16;581600;244;69162;-73
2022/06/29 08:21:26;;;;;;;;;;;;;;;22.73;83.65;97136.31;581636;244;68541;-75
2022/06/29 08:23:53;;;;;;;;;;;;;;;22.74;83.93;97142.47;581652;244;65091;-74
2022/06/29 08:26:20;;;;;;;;;;;;;;;22.74;83.81;97140.59;581599;244;68732;-76
2022/06/29 08:28:48;;;;;;;;;;;;;;;22.74;83.73;97131.75;581664;244;66600;-78
2022/06/29 08:31:15;;;;;;;;;;;;;;;22.74;83.79;97134.44;581321;244;64593;-81
2022/06/29 08:33:43;;;;;;;;;;;;;;;22.75;83.78;97134.17;580590;244;66460;-73
2022/06/29 08:36:11;;;;;;;;;;;;;;;22.74;83.88;97137.91;581204;244;66543;-74
2022/06/29 08:38:41;;;;;;;;;;;;;;;22.74;83.90;97135.23;581292;244;62628;-75
2022/06/29 08:41:11;;;;;;;;;;;;;;;22.74;83.91;97137.91;581127;244;68718;-73
2022/06/29 08:43:39;;;;;;;;;;;;;;;22.74;83.83;97137.91;581559;244;68579;-77
2022/06/29 08:46:06;;;;;;;;;;;;;;;22.74;83.84;97137.91;581521;244;64920;-75
2022/06/29 08:48:35;;;;;;;;;;;;;;;22.74;83.84;97137.91;581461;244;68648;-75
2022/06/29 08:51:02;;;;;;;;;;;;;;;22.73;83.82;97133.64;581608;244;68445;-78
2022/06/29 08:53:31;;;;;;;;;;;;;;;22.75;83.81;97138.70;581479;244;65013;-77
2022/06/29 08:56:02;;;;;;;;;;;;;;;22.75;83.81;97144.06;581594;244;68699;-73
2022/06/29 08:58:30;;;;;;;;;;;;;;;22.75;83.79;97133.34;581586;244;66211;-73
2022/06/29 09:00:57;;;;;;;;;;;;;;;22.74;83.82;97129.88;581573;244;63861;-72
2022/06/29 09:03:25;;;;;;;;;;;;;;;22.75;83.82;97133.34;581610;244;66624;-72
2022/06/29 09:05:57;;;;;;;;;;;;;;;22.75;83.81;97133.34;581648;244;66712;-72
2022/06/29 09:08:24;;;;;;;;;;;;;;;22.75;83.80;97144.06;581553;244;62726;-72
2022/06/29 09:10:53;;;;;;;;;;;;;;;22.75;83.76;97138.70;581588;244;66695;-77
2022/06/29 09:13:22;;;;;;;;;;;;;;;22.75;83.82;97144.89;581572;244;66445;-74
2022/06/29 09:15:59;;;;;;;;;;;;;;;22.76;83.83;97143.80;581603;244;62949;-73
2022/06/29 09:18:28;;;;;;;;;;;;;;;22.75;83.88;97142.20;581667;244;68699;-73
2022/06/29 09:20:57;;;;;;;;;;;;;;;22.76;83.88;97140.32;581665;244;66151;-72
2022/06/29 09:23:25;;;;;;;;;;;;;;;22.75;83.88;97142.20;581617;244;64881;-72
2022/06/29 09:25:53;;;;;;;;;;;;;;;22.76;83.90;97146.47;581599;244;66170;-72
2022/06/29 09:28:23;;;;;;;;;;;;;;;22.75;83.90;97147.56;581556;244;68430;-72
2022/06/29 09:30:56;;;;;;;;;;;;;;;22.77;83.93;97141.91;581527;244;66173;-72
2022/06/29 09:33:24;;;;;;;;;;;;;;;22.77;83.93;97139.23;581599;243;68648;-72
2022/06/29 09:36:06;;;;;;;;;;;;;;;22.75;83.96;97134.17;581627;244;65903;-72
2022/06/29 09:38:34;;;;;;;;;;;;;;;22.76;83.94;97138.44;581611;244;62921;-74
2022/06/29 09:41:03;;;;;;;;;;;;;;;22.79;84.00;97135.20;581676;244;68385;-73
2022/06/29 09:43:32;;;;;;;;;;;;;;;22.77;83.71;97137.34;581544;244;68348;-75
2022/06/29 09:46:04;;;;;;;;;;;;;;;22.76;83.50;97133.08;581604;244;66193;-73
2022/06/29 09:48:31;;;;;;;;;;;;;;;22.77;83.64;97131.20;581536;243;68902;-73
2022/06/29 09:50:59;;;;;;;;;;;;;;;22.76;83.43;97125.05;581558;244;66524;-73
2022/06/29 09:53:28;;;;;;;;;;;;;;;22.77;83.29;97133.88;581584;244;62700;-73
2022/06/29 09:55:57;;;;;;;;;;;;;;;22.76;83.17;97127.72;581513;244;66528;-72
2022/06/29 09:58:26;;;;;;;;;;;;;;;22.77;83.16;97131.20;581544;244;66548;-73
2022/06/29 10:03:39;;;;;;;;;;;;;;;22.77;83.13;97126.63;581665;244;68710;-77
2022/06/29 10:06:08;;;;;;;;;;;;;;;22.78;83.13;97133.61;581592;244;68589;-76
2022/06/29 10:08:36;;;;;;;;;;;;;;;22.77;83.10;97120.48;581578;244;62856;-74
2022/06/29 10:13:39;;;;;;;;;;;;;;;22.76;83.14;97122.36;581650;244;67394;-73
2022/06/29 10:13:42;;;;;;;;;;;;;;;22.76;83.14;97130.40;580663;244;68262;-74
2022/06/29 10:16:11;;;;;;;;;;;;;;;22.77;83.16;97120.48;581638;244;64924;-75
2022/06/29 10:18:43;;;;;;;;;;;;;;;22.76;83.17;97119.69;581384;244;68675;-76
2022/06/29 10:21:15;;;;;;;;;;;;;;;22.76;83.12;97119.69;581568;244;68926;-72
2022/06/29 10:23:47;;;;;;;;;;;;;;;22.77;83.11;97125.84;581663;244;64906;-73
2022/06/29 10:29:09;;;;;;;;;;;;;;;22.78;83.15;97122.06;581728;244;68688;-73
2022/06/29 10:31:54;;;;;;;;;;;;;;;22.76;83.08;97114.33;581635;244;65350;-72
2022/06/29 10:34:34;;;;;;;;;;;;;;;22.77;83.15;97115.13;581431;244;68696;-73
2022/06/29 10:37:10;;;;;;;;;;;;;;;22.77;83.12;97113.23;581541;244;68828;-74
2022/06/29 10:39:48;;;;;;;;;;;;;;;22.76;83.15;97108.97;581651;244;65294;-73
2022/06/29 10:45:14;;;;;;;;;;;;;;;22.76;83.07;97106.28;581637;244;68444;-75
2022/06/29 10:47:44;;;;;;;;;;;;;;;22.77;83.03;97107.88;581577;244;65214;-75
2022/06/29 10:50:16;;;;;;;;;;;;;;;22.76;82.98;97100.93;580710;244;65835;-75
2022/06/29 10:52:47;;;;;;;;;;;;;;;22.77;82.94;97093.69;581559;244;68583;-74
2022/06/29 10:55:15;;;;;;;;;;;;;;;22.77;82.93;97107.08;581549;244;62844;-77
2022/06/29 10:57:47;;;;;;;;;;;;;;;22.78;82.95;97111.34;581717;244;53856;-75
2022/06/29 11:00:19;;;;;;;;;;;;;;;22.78;82.91;97111.34;581704;244;68755;-75
2022/06/29 11:02:46;;;;;;;;;;;;;;;22.78;82.88;97111.34;581605;244;63055;-75
2022/06/29 11:05:15;;;;;;;;;;;;;;;22.78;82.84;97105.98;581709;244;68697;-75
2022/06/29 11:13:23;;;;;;;;;;;;;;;22.79;82.81;97108.41;574829;246;66479;-73
2022/06/29 11:15:52;;;;;;;;;;;;;;;22.79;82.78;97108.41;575314;244;68556;-76
2022/06/29 11:18:20;;;;;;;;;;;;;;;22.79;82.78;97111.08;575491;246;62544;-74
2022/06/29 11:20:51;;;;;;;;;;;;;;;22.79;82.76;97099.57;575543;246;66447;-73
2022/06/29 11:23:20;;;;;;;;;;;;;;;22.79;82.75;97100.36;575437;246;68838;-73
2022/06/29 11:25:49;;;;;;;;;;;;;;;22.79;82.70;97096.89;575423;246;63073;-72
2022/06/29 11:28:18;;;;;;;;;;;;;;;22.79;82.70;97095.01;575039;246;68838;-73
2022/06/29 11:31:02;;;;;;;;;;;;;;;22.80;82.66;97099.27;573932;246;68520;-74
2022/06/29 11:33:30;;;;;;;;;;;;;;;22.80;82.65;97095.80;575502;246;62872;-74
2022/06/29 11:35:59;;;;;;;;;;;;;;;22.80;82.65;97099.27;575500;246;69576;-73
2022/06/29 11:38:30;;;;;;;;;;;;;;;22.80;82.62;97093.12;575388;244;68983;-73
2022/06/29 11:40:57;;;;;;;;;;;;;;;22.80;82.58;97083.20;575510;246;65100;-74
2022/06/29 11:43:24;;;;;;;;;;;;;;;22.81;82.56;97084.02;575446;246;68717;-74
2022/06/29 11:45:53;;;;;;;;;;;;;;;22.81;82.52;97078.66;575316;246;68669;-74
2022/06/29 11:48:22;;;;;;;;;;;;;;;22.81;82.54;97087.50;575492;246;64935;-73
2022/06/29 11:50:51;;;;;;;;;;;;;;;22.81;82.49;97075.98;575471;246;66451;-73
2022/06/29 11:53:38;;;;;;;;;;;;;;;22.80;82.53;97077.84;575033;246;68714;-74
2022/06/29 11:56:12;;;;;;;;;;;;;;;22.81;82.48;97075.98;569096;249;64946;-73
2022/06/29 11:58:44;;;;;;;;;;;;;;;22.82;82.46;97072.21;569021;249;68526;-73
2022/06/29 12:01:13;;;;;;;;;;;;;;;22.83;80.90;97071.12;569041;249;68571;-73
2022/06/29 12:03:42;;;;;;;;;;;;;;;22.89;80.35;97071.88;569064;249;63779;-73
2022/06/29 12:06:09;;;;;;;;;;;;;;;22.90;81.43;97070.81;569064;243;68754;-73
2022/06/29 12:08:37;;;;;;;;;;;;;;;22.91;81.84;97073.19;568991;249;68577;-74
2022/06/29 12:11:04;;;;;;;;;;;;;;;22.92;81.91;97065.98;569004;249;65196;-75
2022/06/29 12:13:31;;;;;;;;;;;;;;;22.94;80.16;97066.47;568956;249;68870;-71
2022/06/29 12:15:59;;;;;;;;;;;;;;;22.95;80.04;97073.45;569092;249;69050;-71
2022/06/29 12:18:27;;;;;;;;;;;;;;;22.94;80.98;97061.11;569140;249;62838;-72
2022/06/29 12:20:54;;;;;;;;;;;;;;;22.92;82.06;97060.62;569034;249;66532;-74
2022/06/29 12:23:22;;;;;;;;;;;;;;;22.91;82.44;97059.00;569076;247;66593;-75
2022/06/29 12:25:52;;;;;;;;;;;;;;;22.89;82.54;97050.44;569011;249;65008;-74
2022/06/29 12:28:20;;;;;;;;;;;;;;;22.89;82.65;97053.94;568959;246;66453;-72
2022/06/29 12:30:48;;;;;;;;;;;;;;;22.88;82.64;97054.20;569112;249;68674;-74
2022/06/29 12:33:15;;;;;;;;;;;;;;;22.88;82.58;97051.53;569068;249;64980;-75
2022/06/29 12:35:43;;;;;;;;;;;;;;;22.88;82.55;97056.89;568952;249;66519;-74
2022/06/29 12:38:10;;;;;;;;;;;;;;;22.88;82.54;97059.56;569075;249;66446;-74
2022/06/29 12:40:38;;;;;;;;;;;;;;;22.88;82.50;97056.89;569011;249;62725;-74
2022/06/29 12:43:07;;;;;;;;;;;;;;;22.88;82.48;97046.17;569096;247;49861;-73
2022/06/29 12:45:35;;;;;;;;;;;;;;;22.88;82.45;97054.20;569079;249;68297;-74
2022/06/29 12:48:03;;;;;;;;;;;;;;;22.88;82.37;97043.48;568977;249;62869;-74
2022/06/29 12:50:32;;;;;;;;;;;;;;;22.88;82.33;97044.28;569089;249;48084;-70
2022/06/29 12:52:59;;;;;;;;;;;;;;;22.90;82.29;97044.02;568970;249;69766;-69
2022/06/29 12:55:27;;;;;;;;;;;;;;;22.90;82.35;97049.38;575074;246;64978;-70
2022/06/29 12:57:54;;;;;;;;;;;;;;;22.89;82.36;97035.18;575454;246;68794;-70
2022/06/29 13:00:23;;;;;;;;;;;;;;;22.89;82.34;97027.14;575429;246;68676;-70
2022/06/29 13:02:51;;;;;;;;;;;;;;;22.88;82.31;97022.84;575405;246;66057;-69
2022/06/29 13:05:20;;;;;;;;;;;;;;;22.89;82.28;97024.47;575484;246;68684;-69
2022/06/29 13:07:47;;;;;;;;;;;;;;;22.89;82.33;97032.50;575472;246;66498;-69
2022/06/29 13:10:15;;;;;;;;;;;;;;;22.90;82.36;97027.94;575457;246;62795;-69
2022/06/29 13:12:42;;;;;;;;;;;;;;;22.90;82.31;97025.25;575469;246;68656;-69
2022/06/29 13:15:10;;;;;;;;;;;;;;;22.91;82.27;97024.95;575416;246;68570;-69